createdAt,value
2022-12-25T00:01:16.131Z,6.49
2022-12-25T00:04:03.120Z,6.43
2022-12-25T00:06:50.408Z,6.35
2022-12-25T00:09:36.976Z,6.27
2022-12-25T00:12:24.103Z,6.25
2022-12-25T00:15:11.167Z,6.31
2022-12-25T00:17:57.968Z,6.30
2022-12-25T00:20:44.908Z,6.25
2022-12-25T00:23:32.016Z,6.25
2022-12-25T00:26:19.041Z,6.29
2022-12-25T00:29:05.604Z,6.32
2022-12-25T00:31:52.262Z,6.36
2022-12-25T00:34:39.005Z,6.34
2022-12-25T00:37:25.610Z,6.32
2022-12-25T00:40:12.866Z,6.32
2022-12-25T00:42:59.663Z,6.36
2022-12-25T00:45:56.222Z,6.38
2022-12-25T00:48:45.204Z,6.38
2022-12-25T00:51:32.175Z,6.40
2022-12-25T00:54:19.789Z,6.37
2022-12-25T00:57:06.493Z,6.41
2022-12-25T00:59:52.972Z,6.44
2022-12-25T01:02:39.938Z,6.50
2022-12-25T01:05:26.852Z,6.50
2022-12-25T01:08:13.842Z,6.46
2022-12-25T01:11:03.351Z,6.34
2022-12-25T01:13:51.025Z,6.26
2022-12-25T01:16:38.107Z,6.25
2022-12-25T01:19:25.053Z,6.26
2022-12-25T01:22:11.818Z,6.18
2022-12-25T01:24:59.750Z,6.08
2022-12-25T01:27:46.362Z,6.03
2022-12-25T01:30:33.091Z,6.02
2022-12-25T01:33:20.075Z,5.99
2022-12-25T01:36:18.979Z,6.00
2022-12-25T01:39:05.826Z,6.06
2022-12-25T01:41:52.818Z,6.08
2022-12-25T01:44:39.479Z,6.13
2022-12-25T01:47:26.507Z,6.12
2022-12-25T01:50:13.315Z,6.12
2022-12-25T01:53:00.415Z,6.18
2022-12-25T01:55:50.814Z,6.24
2022-12-25T01:58:37.608Z,6.26
2022-12-25T02:01:56.933Z,6.24
2022-12-25T02:04:56.628Z,6.21
2022-12-25T02:07:43.879Z,6.29
2022-12-25T02:10:30.918Z,6.37
2022-12-25T02:13:19.500Z,6.48
2022-12-25T02:16:21.121Z,6.43
2022-12-25T02:19:26.285Z,6.32
2022-12-25T02:22:50.453Z,6.26
2022-12-25T02:25:55.794Z,6.21
2022-12-25T02:28:46.290Z,6.20
2022-12-25T02:31:43.372Z,6.17
2022-12-25T02:35:02.337Z,6.13
2022-12-25T02:38:06.085Z,6.13
2022-12-25T02:40:58.541Z,6.15
2022-12-25T02:44:04.999Z,6.19
2022-12-25T02:47:11.785Z,6.24
2022-12-25T02:50:18.356Z,6.27
2022-12-25T02:53:25.851Z,6.25
2022-12-25T02:56:32.246Z,6.19
2022-12-25T02:59:44.168Z,6.19
2022-12-25T03:02:51.514Z,6.23
2022-12-25T03:05:59.371Z,6.22
2022-12-25T03:08:55.349Z,6.17
2022-12-25T03:11:44.019Z,6.21
2022-12-25T03:14:50.252Z,6.25
2022-12-25T03:17:37.291Z,6.27
2022-12-25T03:20:42.657Z,6.24
2022-12-25T03:23:53.435Z,6.18
2022-12-25T03:26:55.332Z,6.20
2022-12-25T03:30:00.691Z,6.25
2022-12-25T03:33:36.680Z,6.31
2022-12-25T03:36:28.641Z,6.33
2022-12-25T03:40:20.632Z,6.33
2022-12-25T03:43:48.823Z,6.37
2022-12-25T03:46:59.752Z,6.41
2022-12-25T03:50:35.388Z,6.41
2022-12-25T03:53:48.086Z,6.39
2022-12-25T03:56:55.598Z,6.35
2022-12-25T04:00:01.289Z,6.34
2022-12-25T04:03:06.801Z,6.42
2022-12-25T04:06:12.463Z,6.46
2022-12-25T04:09:17.861Z,6.43
2022-12-25T04:12:23.990Z,6.41
2022-12-25T04:15:29.402Z,6.39
2022-12-25T04:18:35.076Z,6.44
2022-12-25T04:21:40.876Z,6.51
2022-12-25T04:24:46.576Z,6.54
2022-12-25T04:27:51.906Z,6.53
2022-12-25T04:30:57.128Z,6.48
2022-12-25T04:34:03.494Z,6.43
2022-12-25T04:36:50.632Z,6.43
2022-12-25T04:39:37.467Z,6.48
2022-12-25T04:42:24.203Z,6.51
2022-12-25T04:45:12.098Z,6.51
2022-12-25T04:48:00.351Z,6.46
2022-12-25T04:50:47.375Z,6.43
2022-12-25T04:53:34.478Z,6.46
2022-12-25T04:56:21.216Z,6.49
2022-12-25T04:59:08.091Z,6.51
2022-12-25T05:01:54.926Z,6.50
2022-12-25T05:04:41.733Z,6.45
2022-12-25T05:07:28.454Z,6.45
2022-12-25T05:10:15.593Z,6.47
2022-12-25T05:13:02.112Z,6.48
2022-12-25T05:15:49.216Z,6.49
2022-12-25T05:18:36.041Z,6.47
2022-12-25T05:21:23.319Z,6.46
2022-12-25T05:24:09.743Z,6.48
2022-12-25T05:26:56.629Z,6.53
2022-12-25T05:29:43.491Z,6.51
2022-12-25T05:32:31.304Z,6.54
2022-12-25T05:35:17.746Z,6.55
2022-12-25T05:38:06.723Z,6.49
2022-12-25T05:40:53.712Z,6.42
2022-12-25T05:43:40.222Z,6.39
2022-12-25T05:46:27.051Z,6.40
2022-12-25T05:49:14.096Z,6.42
2022-12-25T05:52:01.334Z,6.42
2022-12-25T05:54:48.047Z,6.37
2022-12-25T05:57:34.692Z,6.32
2022-12-25T06:00:21.445Z,6.27
2022-12-25T06:03:08.204Z,6.28
2022-12-25T06:05:55.251Z,6.29
2022-12-25T06:08:41.960Z,6.29
2022-12-25T06:11:28.743Z,6.24
2022-12-25T06:14:16.202Z,6.18
2022-12-25T06:17:03.353Z,5.99
2022-12-25T06:19:50.080Z,5.84
2022-12-25T06:22:36.716Z,5.76
2022-12-25T06:25:24.061Z,5.71
2022-12-25T06:28:10.606Z,5.62
2022-12-25T06:30:57.411Z,5.49
2022-12-25T06:33:45.142Z,5.37
2022-12-25T06:36:31.803Z,5.25
2022-12-25T06:39:19.140Z,5.19
2022-12-25T06:42:06.192Z,5.13
2022-12-25T06:44:53.500Z,5.13
2022-12-25T06:47:40.343Z,5.06
2022-12-25T06:50:27.247Z,4.98
2022-12-25T06:53:14.042Z,4.87
2022-12-25T06:56:05.457Z,4.78
2022-12-25T06:58:55.412Z,4.75
2022-12-25T07:01:50.556Z,4.70
2022-12-25T07:04:40.645Z,4.66
2022-12-25T07:07:27.199Z,4.62
2022-12-25T07:10:14.059Z,4.60
2022-12-25T07:13:00.775Z,4.55
2022-12-25T07:15:47.363Z,4.48
2022-12-25T07:18:35.170Z,4.42
2022-12-25T07:21:22.162Z,4.38
2022-12-25T07:24:09.001Z,4.39
2022-12-25T07:26:55.825Z,4.45
2022-12-25T07:29:42.603Z,4.50
2022-12-25T07:32:32.781Z,4.50
2022-12-25T07:35:19.392Z,4.46
2022-12-25T07:38:06.167Z,4.43
2022-12-25T07:40:53.810Z,4.41
2022-12-25T07:43:40.928Z,4.38
2022-12-25T07:46:28.497Z,4.40
2022-12-25T07:49:15.874Z,4.43
2022-12-25T07:52:02.478Z,4.46
2022-12-25T07:54:49.350Z,4.44
2022-12-25T07:57:36.661Z,4.46
2022-12-25T08:00:29.569Z,4.54
2022-12-25T08:03:17.089Z,4.63
2022-12-25T08:06:06.919Z,4.76
2022-12-25T08:08:53.854Z,5.01
2022-12-25T08:11:46.331Z,5.36
2022-12-25T08:14:33.389Z,5.55
2022-12-25T08:17:20.200Z,5.74
2022-12-25T08:20:07.355Z,5.87
2022-12-25T08:22:54.279Z,5.95
2022-12-25T08:25:41.044Z,6.08
2022-12-25T08:28:28.863Z,6.26
2022-12-25T08:31:22.096Z,6.56
2022-12-25T08:34:09.959Z,6.61
2022-12-25T08:36:56.673Z,6.60
2022-12-25T08:39:43.340Z,6.83
2022-12-25T08:42:30.182Z,7.90
2022-12-25T08:45:17.107Z,9.13
2022-12-25T08:48:03.737Z,9.73
2022-12-25T08:50:52.224Z,10.50
2022-12-25T08:53:39.291Z,10.98
2022-12-25T08:56:26.442Z,11.30
2022-12-25T08:59:13.138Z,11.55
2022-12-25T09:02:00.329Z,12.18
2022-12-25T09:04:47.741Z,13.30
2022-12-25T09:07:34.503Z,14.64
2022-12-25T09:10:21.758Z,15.69
2022-12-25T09:13:08.527Z,16.69
2022-12-25T09:15:55.208Z,17.55
2022-12-25T09:18:42.272Z,18.36
2022-12-25T09:21:28.940Z,19.08
2022-12-25T09:24:15.605Z,19.58
2022-12-25T09:27:02.588Z,20.01
2022-12-25T09:29:50.400Z,20.49
2022-12-25T09:32:37.025Z,20.95
2022-12-25T09:35:23.948Z,20.65
2022-12-25T09:38:10.666Z,20.01
2022-12-25T09:41:25.783Z,19.80
2022-12-25T09:44:25.579Z,19.11
2022-12-25T09:47:18.517Z,18.28
2022-12-25T09:50:15.795Z,17.95
2022-12-25T09:53:39.673Z,17.70
2022-12-25T09:56:26.478Z,17.96
2022-12-25T09:59:23.608Z,18.71
2022-12-25T10:02:42.579Z,19.23
2022-12-25T10:06:02.315Z,19.66
2022-12-25T10:09:02.462Z,20.29
2022-12-25T10:12:10.610Z,20.60
2022-12-25T10:15:06.551Z,20.96
2022-12-25T10:18:44.748Z,21.17
2022-12-25T10:21:31.991Z,21.41
2022-12-25T10:24:34.704Z,21.67
2022-12-25T10:27:35.135Z,21.77
2022-12-25T10:30:24.496Z,21.79
2022-12-25T10:33:17.179Z,21.61
2022-12-25T10:36:26.830Z,21.33
2022-12-25T10:39:46.105Z,21.16
2022-12-25T10:42:40.817Z,21.24
2022-12-25T10:45:27.842Z,21.20
2022-12-25T10:48:24.507Z,20.85
2022-12-25T10:51:11.188Z,20.44
2022-12-25T10:53:59.175Z,20.06
2022-12-25T10:56:58.592Z,20.00
2022-12-25T10:59:48.452Z,20.11
2022-12-25T11:02:41.008Z,19.84
2022-12-25T11:05:34.865Z,19.67
2022-12-25T11:08:24.796Z,19.43
2022-12-25T11:11:19.748Z,19.27
2022-12-25T11:14:06.686Z,19.03
2022-12-25T11:16:54.221Z,18.84
2022-12-25T11:19:52.577Z,18.40
2022-12-25T11:22:45.359Z,18.11
2022-12-25T11:25:32.274Z,17.70
2022-12-25T11:28:18.946Z,17.48
2022-12-25T11:31:09.722Z,16.99
2022-12-25T11:34:24.721Z,16.48
2022-12-25T11:37:18.539Z,16.27
2022-12-25T11:40:06.814Z,16.32
2022-12-25T11:43:07.543Z,16.25
2022-12-25T11:46:27.446Z,16.28
2022-12-25T11:49:19.888Z,16.45
2022-12-25T11:52:08.121Z,16.38
2022-12-25T11:55:17.375Z,16.29
2022-12-25T11:58:15.819Z,16.36
2022-12-25T12:01:12.295Z,16.27
2022-12-25T12:04:07.194Z,16.32
2022-12-25T12:07:01.036Z,16.43
2022-12-25T12:10:04.543Z,16.56
2022-12-25T12:13:06.795Z,16.42
2022-12-25T12:15:53.480Z,16.52
2022-12-25T12:18:48.128Z,16.62
2022-12-25T12:21:36.941Z,16.62
2022-12-25T12:24:46.643Z,16.42
2022-12-25T12:27:37.595Z,16.31
2022-12-25T12:30:31.692Z,16.08
2022-12-25T12:33:21.004Z,15.74
2022-12-25T12:36:13.326Z,15.49
2022-12-25T12:39:01.687Z,15.16
2022-12-25T12:41:49.723Z,15.12
2022-12-25T12:44:36.809Z,15.17
2022-12-25T12:47:44.631Z,15.17
2022-12-25T12:50:40.908Z,15.07
2022-12-25T12:53:32.497Z,15.02
2022-12-25T12:56:20.445Z,14.70
2022-12-25T12:59:09.996Z,14.68
2022-12-25T13:02:13.610Z,14.38
2022-12-25T13:05:38.819Z,14.01
2022-12-25T13:08:53.368Z,13.62
2022-12-25T13:11:43.272Z,13.32
2022-12-25T13:14:30.579Z,13.04
2022-12-25T13:17:24.834Z,12.76
2022-12-25T13:20:28.929Z,12.50
2022-12-25T13:23:28.357Z,12.18
2022-12-25T13:26:17.898Z,11.89
2022-12-25T13:29:11.056Z,11.62
2022-12-25T13:32:01.030Z,11.31
2022-12-25T13:34:49.855Z,11.02
2022-12-25T13:37:37.668Z,10.64
2022-12-25T13:40:27.370Z,10.35
2022-12-25T13:43:14.590Z,10.17
2022-12-25T13:46:01.889Z,9.93
2022-12-25T13:48:58.691Z,9.76
2022-12-25T13:51:46.700Z,9.56
2022-12-25T13:54:34.119Z,9.39
2022-12-25T13:57:25.228Z,9.21
2022-12-25T14:00:25.880Z,8.94
2022-12-25T14:03:24.663Z,8.77
2022-12-25T14:06:26.508Z,8.58
2022-12-25T14:09:13.702Z,8.46
2022-12-25T14:12:00.579Z,8.33
2022-12-25T14:14:48.553Z,8.25
2022-12-25T14:17:35.554Z,8.14
2022-12-25T14:20:54.884Z,7.99
2022-12-25T14:23:50.335Z,7.84
2022-12-25T14:26:37.279Z,7.70
2022-12-25T14:29:28.325Z,7.55
2022-12-25T14:32:21.385Z,7.48
2022-12-25T14:35:11.159Z,7.38
2022-12-25T14:38:00.334Z,7.28
2022-12-25T14:40:47.573Z,7.18
2022-12-25T14:43:36.421Z,7.11
2022-12-25T14:46:25.821Z,6.97
2022-12-25T14:49:25.359Z,6.83
2022-12-25T14:52:25.016Z,6.69
2022-12-25T14:55:21.687Z,6.54
2022-12-25T14:58:20.811Z,6.36
2022-12-25T15:01:07.737Z,6.31
2022-12-25T15:04:06.075Z,6.30
2022-12-25T15:07:09.706Z,6.29
2022-12-25T15:10:27.215Z,6.25
2022-12-25T15:13:05.328Z,6.16
2022-12-25T15:16:16.120Z,6.00
2022-12-25T15:19:03.010Z,5.85
2022-12-25T15:21:50.353Z,5.78
2022-12-25T15:24:36.821Z,5.70
2022-12-25T15:27:24.602Z,5.61
2022-12-25T15:30:12.558Z,5.49
2022-12-25T15:32:59.555Z,5.41
2022-12-25T15:35:46.248Z,5.32
2022-12-25T15:38:36.741Z,5.14
2022-12-25T15:41:49.464Z,4.99
2022-12-25T15:44:36.866Z,4.87
2022-12-25T15:47:23.459Z,4.81
2022-12-25T15:50:10.270Z,4.76
2022-12-25T15:52:57.294Z,4.69
2022-12-25T15:55:44.237Z,4.62
2022-12-25T15:58:30.734Z,4.55
2022-12-25T16:01:19.414Z,4.50
2022-12-25T16:04:06.535Z,4.44
2022-12-25T16:06:54.462Z,4.39
2022-12-25T16:09:41.544Z,4.38
2022-12-25T16:12:28.454Z,4.29
2022-12-25T16:15:15.803Z,4.18
2022-12-25T16:18:02.969Z,4.17
2022-12-25T16:20:51.938Z,4.19
2022-12-25T16:23:39.068Z,4.22
2022-12-25T16:26:26.147Z,4.24
2022-12-25T16:29:12.969Z,4.21
2022-12-25T16:31:59.621Z,4.05
2022-12-25T16:34:48.775Z,3.94
2022-12-25T16:37:35.833Z,3.89
2022-12-25T16:40:22.595Z,3.88
2022-12-25T16:43:09.689Z,3.95
2022-12-25T16:45:57.554Z,3.98
2022-12-25T16:48:45.377Z,4.01
2022-12-25T16:51:32.338Z,4.06
2022-12-25T16:54:19.318Z,4.13
2022-12-25T16:57:06.112Z,4.19
2022-12-25T16:59:52.985Z,4.21
2022-12-25T17:02:40.964Z,4.24
2022-12-25T17:05:29.305Z,4.27
2022-12-25T17:08:16.255Z,4.32
2022-12-25T17:11:05.133Z,4.30
2022-12-25T17:13:52.051Z,4.29
2022-12-25T17:16:40.549Z,4.29
2022-12-25T17:19:27.590Z,4.21
2022-12-25T17:22:14.399Z,4.10
2022-12-25T17:25:01.415Z,3.99
2022-12-25T17:27:50.701Z,3.90
2022-12-25T17:30:37.529Z,3.87
2022-12-25T17:33:24.152Z,3.82
2022-12-25T17:36:13.671Z,3.83
2022-12-25T17:39:02.185Z,3.81
2022-12-25T17:41:52.363Z,3.79
2022-12-25T17:44:39.012Z,3.75
2022-12-25T17:47:26.458Z,3.74
2022-12-25T17:50:13.399Z,3.73
2022-12-25T17:53:02.680Z,3.75
2022-12-25T17:55:49.477Z,3.80
2022-12-25T17:58:37.758Z,3.83
2022-12-25T18:01:26.313Z,3.88
2022-12-25T18:04:13.474Z,3.92
2022-12-25T18:06:59.996Z,3.92
2022-12-25T18:09:46.873Z,3.92
2022-12-25T18:12:33.596Z,3.90
2022-12-25T18:15:20.353Z,3.90
2022-12-25T18:18:08.325Z,3.90
2022-12-25T18:20:55.095Z,3.90
2022-12-25T18:23:42.136Z,3.87
2022-12-25T18:26:29.050Z,3.85
2022-12-25T18:29:15.657Z,3.83
2022-12-25T18:32:02.739Z,3.81
2022-12-25T18:34:53.352Z,3.87
2022-12-25T18:37:40.489Z,3.94
2022-12-25T18:40:27.277Z,4.04
2022-12-25T18:43:15.441Z,4.09
2022-12-25T18:46:04.456Z,4.05
2022-12-25T18:48:52.239Z,4.00
2022-12-25T18:51:38.857Z,3.94
2022-12-25T18:54:25.809Z,3.84
2022-12-25T18:57:12.573Z,3.74
2022-12-25T19:00:00.290Z,3.69
2022-12-25T19:02:47.211Z,3.72
2022-12-25T19:05:34.560Z,3.79
2022-12-25T19:08:21.252Z,3.90
2022-12-25T19:11:08.452Z,3.99
2022-12-25T19:13:56.757Z,4.03
2022-12-25T19:16:44.612Z,3.95
2022-12-25T19:19:31.761Z,3.94
2022-12-25T19:22:18.597Z,4.01
2022-12-25T19:25:06.092Z,4.07
2022-12-25T19:27:52.938Z,4.16
2022-12-25T19:30:40.020Z,4.21
2022-12-25T19:33:27.095Z,4.21
2022-12-25T19:36:16.156Z,4.17
2022-12-25T19:39:04.625Z,4.10
2022-12-25T19:41:51.154Z,4.05
2022-12-25T19:44:38.453Z,4.04
2022-12-25T19:47:25.536Z,4.01
2022-12-25T19:50:12.333Z,4.00
2022-12-25T19:52:59.432Z,4.01
2022-12-25T19:55:46.327Z,4.02
2022-12-25T19:58:34.156Z,4.02
2022-12-25T20:01:25.615Z,4.04
2022-12-25T20:04:12.728Z,4.03
2022-12-25T20:06:59.747Z,3.98
2022-12-25T20:09:46.712Z,3.92
2022-12-25T20:12:33.622Z,3.91
2022-12-25T20:15:21.646Z,3.89
2022-12-25T20:18:08.258Z,3.92
2022-12-25T20:21:07.553Z,3.98
2022-12-25T20:23:54.844Z,4.05
2022-12-25T20:26:41.603Z,4.02
2022-12-25T20:29:28.309Z,3.96
2022-12-25T20:32:15.259Z,3.91
2022-12-25T20:35:02.220Z,3.90
2022-12-25T20:37:49.121Z,3.98
2022-12-25T20:41:00.115Z,4.10
2022-12-25T20:43:45.502Z,4.13
2022-12-25T20:46:32.937Z,4.13
2022-12-25T20:49:20.072Z,4.18
2022-12-25T20:52:06.894Z,4.20
2022-12-25T20:54:53.499Z,4.16
2022-12-25T20:57:40.523Z,4.19
2022-12-25T21:00:27.464Z,4.25
2022-12-25T21:03:14.573Z,4.29
2022-12-25T21:06:02.495Z,4.23
2022-12-25T21:08:49.526Z,4.18
2022-12-25T21:11:36.544Z,4.16
2022-12-25T21:14:23.819Z,4.01
2022-12-25T21:17:10.514Z,3.90
2022-12-25T21:19:57.344Z,3.95
2022-12-25T21:22:44.097Z,4.06
2022-12-25T21:25:30.769Z,4.09
2022-12-25T21:28:17.412Z,4.10
2022-12-25T21:31:05.864Z,4.08
2022-12-25T21:33:55.472Z,4.02
2022-12-25T21:36:42.154Z,3.97
2022-12-25T21:39:28.813Z,4.01
2022-12-25T21:42:15.634Z,4.07
2022-12-25T21:45:02.281Z,4.08
2022-12-25T21:48:01.305Z,4.10
2022-12-25T21:51:08.935Z,4.05
2022-12-25T21:53:55.816Z,4.05
2022-12-25T21:56:45.870Z,4.05
2022-12-25T21:59:32.944Z,4.05
2022-12-25T22:02:20.172Z,4.03
2022-12-25T22:05:07.312Z,3.97
2022-12-25T22:07:54.124Z,3.91
2022-12-25T22:10:40.943Z,3.93
2022-12-25T22:13:46.116Z,3.88
2022-12-25T22:16:51.588Z,3.88
2022-12-25T22:19:56.641Z,3.88
2022-12-25T22:22:44.086Z,3.90
2022-12-25T22:25:31.039Z,3.96
2022-12-25T22:28:18.083Z,3.93
2022-12-25T22:31:06.155Z,3.84
2022-12-25T22:33:54.554Z,3.87
2022-12-25T22:36:42.047Z,3.91
2022-12-25T22:39:30.509Z,4.01
2022-12-25T22:42:18.044Z,4.10
2022-12-25T22:45:05.963Z,4.15
2022-12-25T22:47:52.991Z,4.16
2022-12-25T22:50:39.933Z,4.07
2022-12-25T22:53:26.673Z,4.05
2022-12-25T22:56:13.871Z,4.06
2022-12-25T22:59:01.064Z,4.08
2022-12-25T23:01:48.955Z,4.12
2022-12-25T23:04:36.785Z,4.12
2022-12-25T23:07:23.550Z,4.10
2022-12-25T23:10:12.296Z,4.03
2022-12-25T23:13:17.717Z,3.99
2022-12-25T23:16:05.776Z,4.05
2022-12-25T23:19:11.270Z,4.13
2022-12-25T23:22:16.739Z,4.21
2022-12-25T23:25:28.331Z,4.30
2022-12-25T23:28:35.808Z,4.30
2022-12-25T23:31:29.085Z,4.31
2022-12-25T23:34:16.744Z,4.27
2022-12-25T23:37:04.056Z,4.28
2022-12-25T23:39:50.709Z,4.32
2022-12-25T23:42:37.801Z,4.34
2022-12-25T23:45:24.536Z,4.36
2022-12-25T23:48:11.209Z,4.29
2022-12-25T23:51:02.606Z,4.22
2022-12-25T23:53:49.389Z,4.06
2022-12-25T23:56:36.896Z,4.00
2022-12-25T23:59:25.959Z,3.99
